Guatimozin, Argentina
Current Conditions -  °F | °C
As of 11:00 PM on Sunday 21 Dec 2014 (Local Time) from SAAR Reporting Station
Clear Clear  
Wind Chill: 18°   Ceiling: Unl
Heat Index: 18°   Visibility: 6mi
Dew Point:   Wind: 7mph
Humidity: 42%   Direction: 230°SW
Pressure: 29.94"   Gusts: NA
Location:  33.45°S, 62.45°W
Report Text: SAAR 220200Z 23006KT CAVOK 18/05 Q1014
Loading
Personal Weather Stations






























Interactive Weather Map New forecast layout! Learn more

10-Day Weather Forecast

Advertisements
Track Severe Weather on mobile